createdAt,value
2019-03-23T00:02:00.687Z,28.73
2019-03-23T00:04:28.349Z,26.37
2019-03-23T00:06:56.163Z,30.83
2019-03-23T00:09:24.158Z,28.67
2019-03-23T00:11:51.911Z,30.10
2019-03-23T00:14:19.617Z,34.50
2019-03-23T00:16:47.805Z,29.47
2019-03-23T00:19:15.751Z,31.93
2019-03-23T00:21:43.321Z,34.03
2019-03-23T00:24:11.207Z,36.83
2019-03-23T00:26:38.983Z,39.00
2019-03-23T00:29:06.772Z,38.20
2019-03-23T00:31:34.552Z,38.27
2019-03-23T00:34:02.318Z,34.63
2019-03-23T00:36:30.019Z,33.83
2019-03-23T00:38:57.815Z,38.37
2019-03-23T00:41:25.539Z,32.50
2019-03-23T00:43:53.260Z,33.93
2019-03-23T00:46:21.362Z,38.90
2019-03-23T00:48:49.035Z,37.77
2019-03-23T00:51:16.996Z,36.57
2019-03-23T00:53:44.615Z,36.03
2019-03-23T00:56:12.283Z,38.67
2019-03-23T00:58:39.943Z,43.77
2019-03-23T01:01:07.495Z,40.93
2019-03-23T01:03:35.135Z,45.17
2019-03-23T01:06:02.845Z,47.27
2019-03-23T01:08:30.434Z,55.60
2019-03-23T01:10:58.164Z,63.17
2019-03-23T01:13:25.790Z,56.73
2019-03-23T01:15:53.475Z,57.50
2019-03-23T01:18:21.162Z,54.00
2019-03-23T01:20:49.977Z,64.87
2019-03-23T01:23:18.118Z,61.33
2019-03-23T01:25:45.926Z,73.17
2019-03-23T01:28:13.729Z,68.00
2019-03-23T01:30:41.514Z,72.07
2019-03-23T01:33:09.251Z,71.60
2019-03-23T01:35:36.949Z,75.53
2019-03-23T01:38:04.727Z,76.10
2019-03-23T01:40:32.694Z,79.03
2019-03-23T01:43:00.459Z,85.10
2019-03-23T01:45:28.043Z,83.53
2019-03-23T01:47:56.083Z,74.87
2019-03-23T01:50:23.790Z,83.23
2019-03-23T01:52:51.301Z,81.80
2019-03-23T01:55:19.301Z,83.13
2019-03-23T01:57:47.055Z,83.97
2019-03-23T02:00:15.825Z,83.87
2019-03-23T02:02:43.541Z,90.60
2019-03-23T02:05:11.465Z,93.63
2019-03-23T02:07:39.202Z,95.87
2019-03-23T02:10:07.225Z,99.53
2019-03-23T02:12:35.119Z,101.17
2019-03-23T02:15:03.303Z,104.40
2019-03-23T02:17:31.123Z,102.73
2019-03-23T02:19:58.985Z,107.00
2019-03-23T02:22:26.600Z,111.27
2019-03-23T02:24:54.352Z,110.07
2019-03-23T02:27:22.147Z,104.07
2019-03-23T02:29:49.850Z,108.37
2019-03-23T02:32:17.587Z,112.47
2019-03-23T02:34:45.283Z,112.77
2019-03-23T02:37:13.019Z,117.83
2019-03-23T02:39:40.719Z,113.57
2019-03-23T02:42:08.312Z,123.30
2019-03-23T02:44:36.010Z,117.03
2019-03-23T02:47:03.907Z,114.00
2019-03-23T02:49:31.764Z,118.43
2019-03-23T02:51:59.590Z,126.80
2019-03-23T02:54:27.408Z,126.03
2019-03-23T02:56:55.447Z,129.17
2019-03-23T02:59:23.331Z,126.50
2019-03-23T03:01:51.100Z,120.93
2019-03-23T03:04:18.901Z,128.93
2019-03-23T03:06:46.736Z,132.20
2019-03-23T03:09:14.569Z,120.27
2019-03-23T03:11:42.154Z,128.07
2019-03-23T03:14:09.808Z,120.73
2019-03-23T03:16:37.501Z,113.23
2019-03-23T03:19:05.230Z,126.53
2019-03-23T03:21:32.952Z,123.13
2019-03-23T03:24:00.629Z,119.60
2019-03-23T03:26:28.404Z,130.47
2019-03-23T03:28:56.027Z,125.83
2019-03-23T03:31:23.722Z,133.23
2019-03-23T03:33:51.391Z,133.47
2019-03-23T03:36:19.153Z,137.23
2019-03-23T03:38:46.925Z,134.47
2019-03-23T03:41:14.721Z,128.43
2019-03-23T03:43:42.754Z,129.73
2019-03-23T03:46:10.548Z,132.80
2019-03-23T03:48:38.188Z,123.43
2019-03-23T03:51:05.830Z,127.03
2019-03-23T03:53:33.618Z,126.00
2019-03-23T03:56:01.450Z,126.60
2019-03-23T03:58:29.134Z,125.70
2019-03-23T04:00:56.976Z,123.80
2019-03-23T04:03:24.878Z,132.87
2019-03-23T04:05:52.679Z,124.60
2019-03-23T04:08:20.610Z,128.90
2019-03-23T04:10:48.473Z,122.20
2019-03-23T04:13:16.244Z,127.30
2019-03-23T04:15:43.957Z,120.20
2019-03-23T04:18:11.766Z,122.67
2019-03-23T04:20:39.640Z,120.63
2019-03-23T04:23:07.546Z,114.43
2019-03-23T04:25:35.276Z,118.87
2019-03-23T04:28:03.151Z,113.37
2019-03-23T04:30:31.091Z,114.67
2019-03-23T04:32:58.820Z,105.43
2019-03-23T04:35:26.294Z,108.83
2019-03-23T04:37:54.083Z,108.33
2019-03-23T04:40:21.863Z,107.60
2019-03-23T04:42:49.677Z,115.43
2019-03-23T04:45:17.237Z,108.80
2019-03-23T04:47:44.905Z,108.63
2019-03-23T04:50:13.144Z,120.67
2019-03-23T04:52:40.710Z,108.97
2019-03-23T04:55:09.783Z,117.13
2019-03-23T04:57:38.175Z,114.07
2019-03-23T05:00:06.719Z,108.70
2019-03-23T05:02:34.628Z,108.33
2019-03-23T05:05:02.594Z,103.40
2019-03-23T05:07:30.275Z,106.17
2019-03-23T05:09:58.326Z,107.83
2019-03-23T05:12:26.130Z,111.87
2019-03-23T05:14:53.926Z,109.80
2019-03-23T05:17:21.578Z,110.37
2019-03-23T05:19:49.291Z,106.10
2019-03-23T05:22:17.016Z,104.97
2019-03-23T05:24:44.718Z,98.73
2019-03-23T05:27:12.610Z,95.10
2019-03-23T05:29:41.400Z,93.03
2019-03-23T05:32:09.173Z,90.33
2019-03-23T05:34:37.057Z,90.47
2019-03-23T05:37:04.966Z,93.30
2019-03-23T05:39:32.670Z,99.97
2019-03-23T05:42:00.617Z,105.53
2019-03-23T05:44:28.497Z,103.67
2019-03-23T05:46:56.223Z,98.93
2019-03-23T05:49:23.962Z,97.33
2019-03-23T05:51:51.670Z,104.33
2019-03-23T05:54:19.685Z,100.93
2019-03-23T05:56:47.343Z,119.60
2019-03-23T05:59:15.223Z,107.07
2019-03-23T06:01:43.062Z,108.83
2019-03-23T06:04:10.725Z,113.20
2019-03-23T06:06:38.686Z,113.63
2019-03-23T06:09:06.659Z,117.60
2019-03-23T06:11:34.627Z,108.13
2019-03-23T06:14:02.644Z,109.40
2019-03-23T06:16:30.427Z,104.17
2019-03-23T06:18:58.627Z,108.73
2019-03-23T06:21:26.800Z,116.20
2019-03-23T06:23:54.768Z,115.97
2019-03-23T06:26:22.664Z,115.77
2019-03-23T06:28:50.743Z,116.20
2019-03-23T06:31:18.610Z,119.60
2019-03-23T06:33:46.406Z,108.87
2019-03-23T06:36:16.412Z,106.77
2019-03-23T06:38:44.417Z,108.83
2019-03-23T06:41:12.265Z,107.70
2019-03-23T06:43:40.167Z,106.73
2019-03-23T06:46:08.030Z,104.47
2019-03-23T06:48:35.966Z,100.93
2019-03-23T06:51:03.983Z,103.17
2019-03-23T06:53:31.708Z,100.27
2019-03-23T06:55:59.818Z,107.93
2019-03-23T06:58:27.519Z,93.03
2019-03-23T07:00:55.390Z,99.90
2019-03-23T07:03:23.040Z,98.00
2019-03-23T07:05:51.810Z,105.70
2019-03-23T07:08:19.591Z,107.57
2019-03-23T07:10:48.415Z,102.53
2019-03-23T07:13:16.080Z,90.40
2019-03-23T07:15:43.915Z,94.27
2019-03-23T07:18:11.741Z,93.23
2019-03-23T07:20:39.662Z,93.63
2019-03-23T07:23:07.328Z,87.40
2019-03-23T07:25:39.291Z,95.60
2019-03-23T07:28:08.006Z,100.93
2019-03-23T07:30:35.895Z,96.30
2019-03-23T07:33:04.045Z,85.90
2019-03-23T07:35:31.923Z,100.43
2019-03-23T07:37:59.717Z,94.40
2019-03-23T07:40:27.725Z,92.07
2019-03-23T07:42:55.770Z,95.63
2019-03-23T07:45:23.675Z,94.27
2019-03-23T07:47:51.730Z,90.50
2019-03-23T07:50:19.593Z,87.13
2019-03-23T07:52:47.406Z,81.60
2019-03-23T07:55:15.399Z,87.43
2019-03-23T07:57:43.454Z,79.73
2019-03-23T08:00:16.226Z,85.30
2019-03-23T08:02:44.218Z,80.67
2019-03-23T08:05:12.289Z,84.27
2019-03-23T08:07:40.215Z,83.93
2019-03-23T08:10:08.319Z,85.20
2019-03-23T08:12:36.612Z,76.00
2019-03-23T08:15:05.818Z,73.70
2019-03-23T08:17:33.720Z,82.13
2019-03-23T08:20:01.997Z,75.67
2019-03-23T08:22:30.734Z,75.47
2019-03-23T08:24:58.699Z,76.60
2019-03-23T08:27:26.457Z,72.53
2019-03-23T08:29:54.387Z,67.37
2019-03-23T08:32:22.333Z,72.07
2019-03-23T08:34:50.083Z,72.03
2019-03-23T08:37:17.843Z,69.10
2019-03-23T08:39:48.704Z,71.93
2019-03-23T08:42:15.700Z,71.00
2019-03-23T08:44:43.798Z,68.33
2019-03-23T08:47:11.537Z,72.23
2019-03-23T08:49:39.223Z,69.47
2019-03-23T08:52:07.076Z,67.73
2019-03-23T08:54:34.953Z,67.60
2019-03-23T08:57:02.562Z,63.20
2019-03-23T08:59:30.029Z,67.53
2019-03-23T09:01:57.605Z,61.93
2019-03-23T09:04:25.318Z,72.53
2019-03-23T09:06:52.778Z,65.30
2019-03-23T09:09:20.264Z,65.37
2019-03-23T09:11:47.729Z,64.37
2019-03-23T09:14:15.176Z,61.03
2019-03-23T09:16:42.865Z,69.50
2019-03-23T09:19:10.466Z,62.03
2019-03-23T09:21:38.365Z,61.77
2019-03-23T09:24:05.873Z,60.03
2019-03-23T09:26:33.446Z,60.93
2019-03-23T09:29:00.977Z,61.10
2019-03-23T09:31:28.483Z,59.90
2019-03-23T09:33:57.040Z,62.30
2019-03-23T09:36:24.785Z,59.20
2019-03-23T09:38:52.305Z,57.87
2019-03-23T09:41:19.914Z,60.87
2019-03-23T09:43:47.360Z,59.60
2019-03-23T09:46:14.921Z,56.77
2019-03-23T09:48:42.874Z,57.27
2019-03-23T09:51:10.795Z,55.13
2019-03-23T09:53:38.502Z,50.37
2019-03-23T09:56:06.387Z,60.13
2019-03-23T09:58:34.153Z,58.80
2019-03-23T10:01:01.919Z,51.70
2019-03-23T10:03:29.996Z,58.43
2019-03-23T10:05:57.860Z,55.00
2019-03-23T10:08:25.519Z,57.83
2019-03-23T10:10:53.258Z,55.10
2019-03-23T10:13:20.728Z,56.20
2019-03-23T10:15:48.326Z,52.73
2019-03-23T10:18:17.074Z,56.53
2019-03-23T10:20:45.033Z,52.93
2019-03-23T10:23:13.616Z,57.53
2019-03-23T10:25:41.171Z,55.97
2019-03-23T10:28:09.092Z,58.40
2019-03-23T10:30:36.786Z,53.47
2019-03-23T10:33:04.450Z,53.30
2019-03-23T10:35:32.106Z,53.27
2019-03-23T10:37:59.850Z,51.73
2019-03-23T10:40:32.560Z,48.73
2019-03-23T10:42:57.558Z,52.40
2019-03-23T10:45:25.549Z,50.23
2019-03-23T10:47:53.587Z,50.70
2019-03-23T10:50:21.911Z,50.03
2019-03-23T10:52:50.059Z,50.73
2019-03-23T10:55:17.935Z,51.17
2019-03-23T10:57:46.015Z,51.30
2019-03-23T11:00:14.461Z,46.80
2019-03-23T11:02:42.631Z,58.47
2019-03-23T11:05:10.572Z,51.47
2019-03-23T11:07:38.530Z,49.87
2019-03-23T11:10:07.236Z,47.67
2019-03-23T11:12:37.077Z,44.80
2019-03-23T11:15:05.779Z,50.87
2019-03-23T11:17:33.899Z,52.23
2019-03-23T11:20:01.837Z,50.17
2019-03-23T11:22:29.975Z,49.40
2019-03-23T11:24:57.929Z,47.33
2019-03-23T11:27:25.989Z,49.83
2019-03-23T11:29:53.815Z,45.70
2019-03-23T11:32:21.544Z,50.83
2019-03-23T11:34:49.244Z,48.30
2019-03-23T11:37:17.012Z,48.07
2019-03-23T11:39:45.079Z,49.43
2019-03-23T11:42:12.674Z,51.67
2019-03-23T11:44:40.366Z,49.13
2019-03-23T11:47:08.266Z,54.87
2019-03-23T11:49:36.077Z,48.00
2019-03-23T11:52:03.931Z,51.87
2019-03-23T11:54:31.763Z,48.50
2019-03-23T11:56:59.638Z,52.53
2019-03-23T11:59:27.466Z,47.63
2019-03-23T12:01:56.066Z,48.87
2019-03-23T12:04:25.177Z,51.43
2019-03-23T12:06:53.251Z,45.73
2019-03-23T12:09:20.950Z,52.93
2019-03-23T12:11:48.796Z,51.80
2019-03-23T12:14:16.536Z,49.10
2019-03-23T12:16:44.254Z,52.33
2019-03-23T12:19:11.922Z,49.60
2019-03-23T12:21:39.586Z,51.47
2019-03-23T12:24:08.608Z,50.53
2019-03-23T12:26:36.398Z,47.07
2019-03-23T12:29:04.097Z,48.40
2019-03-23T12:31:31.838Z,52.10
2019-03-23T12:33:59.702Z,48.93
2019-03-23T12:36:27.338Z,51.80
2019-03-23T12:38:55.262Z,50.30
2019-03-23T12:41:23.609Z,50.37
2019-03-23T12:43:51.421Z,48.60
2019-03-23T12:46:19.313Z,48.07
2019-03-23T12:48:47.030Z,47.07
2019-03-23T12:51:14.751Z,48.07
2019-03-23T12:53:42.667Z,48.03
2019-03-23T12:56:10.367Z,43.33
2019-03-23T12:58:38.731Z,52.30
2019-03-23T13:01:06.659Z,53.23
2019-03-23T13:03:34.408Z,48.33
2019-03-23T13:06:02.283Z,52.10
2019-03-23T13:08:29.947Z,49.47
2019-03-23T13:10:57.583Z,53.40
2019-03-23T13:13:25.243Z,49.37
2019-03-23T13:15:52.898Z,46.73
2019-03-23T13:18:27.043Z,51.03
2019-03-23T13:20:50.132Z,47.80
2019-03-23T13:23:18.115Z,48.03
2019-03-23T13:25:48.187Z,49.10
2019-03-23T13:28:16.157Z,51.30
2019-03-23T13:30:43.912Z,48.93
2019-03-23T13:33:12.838Z,54.23
2019-03-23T13:35:41.654Z,46.87
2019-03-23T13:38:09.355Z,47.50
2019-03-23T13:40:37.247Z,47.23
2019-03-23T13:43:05.067Z,55.70
2019-03-23T13:45:42.266Z,50.17
2019-03-23T13:48:02.269Z,51.70
2019-03-23T13:50:30.148Z,50.10
2019-03-23T13:52:57.875Z,49.90
2019-03-23T13:55:27.077Z,49.30
2019-03-23T13:57:54.758Z,50.20
2019-03-23T14:00:23.574Z,45.60
2019-03-23T14:02:53.689Z,51.03
2019-03-23T14:05:21.774Z,47.60
2019-03-23T14:07:49.812Z,50.73
2019-03-23T14:10:17.681Z,49.63
2019-03-23T14:12:48.337Z,50.07
2019-03-23T14:15:18.374Z,49.07
2019-03-23T14:17:46.138Z,52.37
2019-03-23T14:20:14.082Z,47.17
2019-03-23T14:22:42.165Z,54.30
2019-03-23T14:25:10.033Z,45.30
2019-03-23T14:27:37.889Z,48.93
2019-03-23T14:30:06.145Z,49.63
2019-03-23T14:32:34.258Z,52.97
2019-03-23T14:35:02.357Z,50.97
2019-03-23T14:37:30.264Z,52.90
2019-03-23T14:39:58.231Z,52.23
2019-03-23T14:42:26.199Z,48.90
2019-03-23T14:44:54.046Z,45.33
2019-03-23T14:47:22.050Z,51.60
2019-03-23T14:49:49.891Z,49.67
2019-03-23T14:52:17.897Z,46.93
2019-03-23T14:54:45.969Z,51.97
2019-03-23T14:57:13.743Z,50.80
2019-03-23T14:59:41.702Z,54.50
2019-03-23T15:02:09.206Z,46.77
2019-03-23T15:04:36.708Z,47.50
2019-03-23T15:07:04.569Z,51.53
2019-03-23T15:09:32.111Z,50.47
2019-03-23T15:11:59.764Z,48.77
2019-03-23T15:14:27.676Z,52.73
2019-03-23T15:16:55.509Z,55.83
2019-03-23T15:19:23.731Z,48.87
2019-03-23T15:21:51.568Z,50.10
2019-03-23T15:24:19.363Z,50.53
2019-03-23T15:26:47.079Z,48.03
2019-03-23T15:29:15.539Z,51.10
2019-03-23T15:31:43.334Z,60.63
2019-03-23T15:34:11.014Z,55.50
2019-03-23T15:36:39.092Z,52.83
2019-03-23T15:39:07.118Z,52.13
2019-03-23T15:41:35.141Z,49.47
2019-03-23T15:44:03.088Z,54.30
2019-03-23T15:46:30.929Z,50.70
2019-03-23T15:48:58.626Z,50.23
2019-03-23T15:51:26.498Z,54.03
2019-03-23T15:53:54.125Z,56.67
2019-03-23T15:56:21.891Z,52.87
2019-03-23T15:58:49.641Z,55.80
2019-03-23T16:01:17.574Z,55.23
2019-03-23T16:03:45.539Z,54.53
2019-03-23T16:06:13.275Z,55.63
2019-03-23T16:08:41.199Z,55.63
2019-03-23T16:11:08.890Z,51.03
2019-03-23T16:13:36.882Z,53.33
2019-03-23T16:16:04.854Z,59.93
2019-03-23T16:18:32.645Z,54.37
2019-03-23T16:21:00.379Z,54.70
2019-03-23T16:23:28.122Z,56.20
2019-03-23T16:25:55.783Z,59.60
2019-03-23T16:28:23.434Z,56.77
2019-03-23T16:30:52.354Z,56.27
2019-03-23T16:33:20.000Z,56.80
2019-03-23T16:35:47.654Z,56.50
2019-03-23T16:38:16.097Z,54.33
2019-03-23T16:40:43.644Z,51.63
2019-03-23T16:43:11.222Z,54.10
2019-03-23T16:45:38.767Z,57.70
2019-03-23T16:48:06.606Z,58.43
2019-03-23T16:50:34.409Z,58.53
2019-03-23T16:53:01.866Z,56.00
2019-03-23T16:55:29.463Z,58.47
2019-03-23T16:57:57.033Z,54.50
2019-03-23T17:00:35.101Z,54.07
2019-03-23T17:03:03.224Z,54.97
2019-03-23T17:05:30.909Z,55.87
2019-03-23T17:07:58.505Z,51.30
2019-03-23T17:10:26.972Z,51.77
2019-03-23T17:12:55.612Z,49.43
2019-03-23T17:15:23.180Z,52.17
2019-03-23T17:17:50.599Z,48.87
2019-03-23T17:20:18.009Z,51.13
2019-03-23T17:22:45.554Z,50.70
2019-03-23T17:25:13.133Z,51.40
2019-03-23T17:27:40.700Z,51.67
2019-03-23T17:30:09.037Z,50.73
2019-03-23T17:32:37.021Z,49.67
2019-03-23T17:35:05.107Z,53.47
2019-03-23T17:37:32.532Z,48.87
2019-03-23T17:40:00.457Z,56.97
2019-03-23T17:42:27.901Z,54.30
2019-03-23T17:44:55.459Z,53.90
2019-03-23T17:47:22.906Z,51.50
2019-03-23T17:49:50.440Z,57.17
2019-03-23T17:52:18.113Z,61.30
2019-03-23T17:54:45.562Z,58.47
2019-03-23T17:57:13.150Z,60.30
2019-03-23T17:59:40.569Z,56.40
2019-03-23T18:02:08.372Z,59.77
2019-03-23T18:04:35.825Z,51.80
2019-03-23T18:07:03.414Z,56.73
2019-03-23T18:09:31.137Z,51.17
2019-03-23T18:11:58.564Z,46.97
2019-03-23T18:14:26.091Z,46.33
2019-03-23T18:16:53.603Z,44.40
2019-03-23T18:19:21.046Z,44.93
2019-03-23T18:21:48.595Z,38.20
2019-03-23T18:24:16.020Z,34.47
2019-03-23T18:26:43.465Z,24.53
2019-03-23T18:29:10.996Z,25.73
2019-03-23T18:31:38.916Z,24.30
2019-03-23T18:34:06.338Z,26.77
2019-03-23T18:36:33.793Z,28.60
2019-03-23T18:39:01.313Z,30.10
2019-03-23T18:41:28.984Z,28.47
2019-03-23T18:43:56.537Z,27.70
2019-03-23T18:46:24.691Z,25.80
2019-03-23T18:48:52.172Z,24.27
2019-03-23T18:51:19.594Z,23.77
2019-03-23T18:53:47.021Z,23.43
2019-03-23T18:56:14.453Z,28.63
2019-03-23T18:58:42.035Z,21.60
2019-03-23T19:01:09.558Z,22.43
2019-03-23T19:03:37.291Z,25.33
2019-03-23T19:06:04.840Z,24.17
2019-03-23T19:08:33.365Z,22.27
2019-03-23T19:11:00.896Z,25.00
2019-03-23T19:13:37.498Z,22.57
2019-03-23T19:15:57.683Z,21.57
2019-03-23T19:18:25.195Z,24.80
2019-03-23T19:20:52.736Z,24.00
2019-03-23T19:23:20.162Z,26.03
2019-03-23T19:25:47.618Z,23.63
2019-03-23T19:28:15.254Z,25.30
2019-03-23T19:30:42.962Z,22.77
2019-03-23T19:33:10.510Z,25.00
2019-03-23T19:35:37.985Z,21.30
2019-03-23T19:38:05.474Z,23.13
2019-03-23T19:40:33.048Z,23.20
2019-03-23T19:43:00.593Z,24.40
2019-03-23T19:45:28.373Z,23.97
2019-03-23T19:47:55.822Z,22.93
2019-03-23T19:50:23.594Z,28.47
2019-03-23T19:52:51.712Z,23.37
2019-03-23T19:55:19.782Z,26.47
2019-03-23T19:57:47.978Z,24.60
2019-03-23T20:00:16.227Z,21.40
2019-03-23T20:02:44.929Z,23.33
2019-03-23T20:05:13.561Z,22.87
2019-03-23T20:07:41.451Z,24.23
2019-03-23T20:10:09.755Z,27.83
2019-03-23T20:12:37.885Z,23.43
2019-03-23T20:15:06.286Z,26.53
2019-03-23T20:17:34.021Z,21.03
2019-03-23T20:20:01.920Z,22.37
2019-03-23T20:22:29.611Z,20.00
2019-03-23T20:24:57.482Z,24.17
2019-03-23T20:27:25.507Z,21.53
2019-03-23T20:29:53.878Z,21.33
2019-03-23T20:32:22.011Z,21.77
2019-03-23T20:34:49.575Z,20.20
2019-03-23T20:37:17.440Z,22.87
2019-03-23T20:39:45.309Z,19.90
2019-03-23T20:42:13.943Z,20.33
2019-03-23T20:44:41.855Z,20.70
2019-03-23T20:47:10.386Z,16.63
2019-03-23T20:49:39.521Z,23.00
2019-03-23T20:52:08.013Z,18.13
2019-03-23T20:54:36.025Z,16.70
2019-03-23T20:57:03.673Z,21.57
2019-03-23T20:59:32.541Z,20.67
2019-03-23T21:02:00.274Z,21.00
2019-03-23T21:04:28.113Z,22.30
2019-03-23T21:06:56.216Z,16.30
2019-03-23T21:09:24.151Z,14.83
2019-03-23T21:11:51.940Z,17.83
2019-03-23T21:14:20.584Z,15.83
2019-03-23T21:16:48.971Z,17.37
2019-03-23T21:19:17.241Z,14.83
2019-03-23T21:21:46.114Z,15.17
2019-03-23T21:24:13.843Z,12.97
2019-03-23T21:26:41.821Z,11.70
2019-03-23T21:29:09.831Z,14.00
2019-03-23T21:31:37.689Z,13.67
2019-03-23T21:34:05.511Z,10.03
2019-03-23T21:36:33.190Z,12.70
2019-03-23T21:39:01.272Z,12.70
2019-03-23T21:41:31.236Z,11.07
2019-03-23T21:43:59.246Z,9.73
2019-03-23T21:46:28.434Z,9.33
2019-03-23T21:48:56.440Z,11.43
2019-03-23T21:51:24.295Z,9.13
2019-03-23T21:53:52.043Z,10.13
2019-03-23T21:56:19.647Z,8.97
2019-03-23T21:58:47.203Z,10.50
2019-03-23T22:01:14.888Z,11.00
2019-03-23T22:03:42.690Z,8.83
2019-03-23T22:06:10.882Z,7.80
2019-03-23T22:08:40.976Z,7.37
2019-03-23T22:11:09.381Z,7.17
2019-03-23T22:13:37.101Z,8.30
2019-03-23T22:16:05.319Z,10.70
2019-03-23T22:18:33.087Z,10.43
2019-03-23T22:21:00.768Z,9.30
2019-03-23T22:23:28.367Z,8.97
2019-03-23T22:25:56.068Z,10.47
2019-03-23T22:28:23.894Z,13.37
2019-03-23T22:30:51.848Z,12.00
2019-03-23T22:33:19.431Z,9.50
2019-03-23T22:35:47.026Z,13.80
2019-03-23T22:38:14.879Z,8.20
2019-03-23T22:40:42.707Z,8.37
2019-03-23T22:43:10.758Z,9.50
2019-03-23T22:45:38.864Z,12.37
2019-03-23T22:48:06.707Z,14.97
2019-03-23T22:50:34.576Z,13.00
2019-03-23T22:53:02.673Z,10.60
2019-03-23T22:55:30.563Z,8.80
2019-03-23T22:57:58.358Z,13.10
2019-03-23T23:00:42.955Z,11.10
2019-03-23T23:03:11.862Z,10.47
2019-03-23T23:05:40.644Z,9.60
2019-03-23T23:08:08.334Z,6.13
2019-03-23T23:10:37.353Z,8.50
2019-03-23T23:13:05.170Z,8.30
2019-03-23T23:15:33.079Z,8.67
2019-03-23T23:18:00.883Z,8.50
2019-03-23T23:20:28.495Z,8.17
2019-03-23T23:22:56.232Z,12.50
2019-03-23T23:25:23.816Z,8.70
2019-03-23T23:27:51.614Z,13.17
2019-03-23T23:30:19.437Z,16.63
2019-03-23T23:32:47.223Z,10.97
2019-03-23T23:35:16.323Z,7.63
2019-03-23T23:37:44.157Z,11.97
2019-03-23T23:40:13.937Z,14.03
2019-03-23T23:42:41.892Z,8.40
2019-03-23T23:45:15.788Z,10.73
2019-03-23T23:47:40.614Z,11.70
2019-03-23T23:50:08.743Z,14.07
2019-03-23T23:52:36.578Z,12.37
2019-03-23T23:55:04.622Z,9.57
2019-03-23T23:57:32.321Z,17.10
2019-03-23T23:59:59.987Z,9.33
